createdAt,value
2019-01-17T00:00:06.565Z,995.52
2019-01-17T00:01:06.551Z,995.59
2019-01-17T00:02:06.539Z,995.49
2019-01-17T00:03:06.536Z,995.48
2019-01-17T00:04:06.515Z,995.44
2019-01-17T00:05:06.515Z,995.47
2019-01-17T00:06:06.496Z,995.39
2019-01-17T00:07:06.489Z,995.47
2019-01-17T00:08:06.469Z,995.43
2019-01-17T00:09:06.466Z,995.38
2019-01-17T00:10:06.452Z,995.38
2019-01-17T00:11:06.437Z,995.43
2019-01-17T00:12:06.434Z,995.39
2019-01-17T00:13:06.417Z,995.41
2019-01-17T00:14:06.404Z,995.39
2019-01-17T00:15:06.392Z,995.38
2019-01-17T00:16:06.395Z,995.29
2019-01-17T00:17:06.370Z,995.31
2019-01-17T00:18:06.359Z,995.29
2019-01-17T00:19:06.347Z,995.20
2019-01-17T00:20:06.337Z,995.25
2019-01-17T00:21:06.327Z,995.30
2019-01-17T00:22:06.314Z,995.30
2019-01-17T00:23:06.304Z,995.32
2019-01-17T00:24:06.297Z,995.45
2019-01-17T00:25:06.282Z,995.37
2019-01-17T00:26:06.268Z,995.39
2019-01-17T00:27:06.256Z,995.33
2019-01-17T00:28:06.246Z,995.38
2019-01-17T00:29:06.237Z,995.38
2019-01-17T00:30:06.224Z,995.37
2019-01-17T00:31:06.214Z,995.35
2019-01-17T00:32:06.200Z,995.35
2019-01-17T00:33:06.195Z,995.39
2019-01-17T00:34:06.179Z,995.36
2019-01-17T00:35:06.173Z,995.35
2019-01-17T00:36:06.155Z,995.31
2019-01-17T00:37:06.145Z,995.26
2019-01-17T00:38:06.134Z,995.27
2019-01-17T00:39:06.121Z,995.18
2019-01-17T00:40:06.110Z,995.14
2019-01-17T00:41:06.099Z,995.19
2019-01-17T00:42:06.090Z,995.18
2019-01-17T00:43:06.079Z,995.24
2019-01-17T00:44:06.066Z,995.20
2019-01-17T00:45:06.054Z,995.13
2019-01-17T00:46:06.050Z,995.10
2019-01-17T00:47:06.035Z,995.11
2019-01-17T00:48:06.026Z,995.11
2019-01-17T00:49:06.009Z,995.06
2019-01-17T00:50:05.999Z,995.06
2019-01-17T00:51:05.987Z,995.04
2019-01-17T00:52:05.974Z,995.02
2019-01-17T00:53:05.970Z,995.03
2019-01-17T00:54:09.204Z,995.00
2019-01-17T00:55:05.978Z,995.00
2019-01-17T00:56:05.976Z,995.00
2019-01-17T00:57:05.918Z,995.00
2019-01-17T00:58:05.919Z,995.00
2019-01-17T00:59:05.921Z,995.04
2019-01-17T01:00:05.927Z,995.00
2019-01-17T01:01:05.874Z,995.02
2019-01-17T01:02:05.863Z,995.02
2019-01-17T01:03:05.853Z,994.99
2019-01-17T01:04:05.854Z,994.90
2019-01-17T01:05:05.837Z,994.99
2019-01-17T01:06:05.821Z,994.98
2019-01-17T01:07:05.809Z,994.97
2019-01-17T01:08:05.797Z,994.98
2019-01-17T01:09:05.789Z,994.91
2019-01-17T01:10:05.773Z,994.97
2019-01-17T01:11:05.767Z,994.94
2019-01-17T01:12:05.757Z,994.94
2019-01-17T01:13:05.740Z,994.87
2019-01-17T01:14:05.735Z,994.82
2019-01-17T01:15:05.719Z,994.87
2019-01-17T01:16:05.708Z,994.90
2019-01-17T01:17:05.694Z,994.84
2019-01-17T01:18:05.686Z,994.84
2019-01-17T01:19:05.674Z,994.89
2019-01-17T01:20:05.663Z,994.95
2019-01-17T01:21:05.652Z,994.96
2019-01-17T01:22:05.641Z,994.99
2019-01-17T01:23:05.629Z,995.04
2019-01-17T01:24:05.621Z,994.97
2019-01-17T01:25:05.607Z,994.98
2019-01-17T01:26:05.594Z,994.98
2019-01-17T01:27:05.589Z,994.97
2019-01-17T01:28:05.573Z,994.93
2019-01-17T01:29:05.562Z,994.86
2019-01-17T01:30:05.563Z,994.78
2019-01-17T01:31:05.541Z,994.70
2019-01-17T01:32:05.532Z,994.69
2019-01-17T01:33:05.550Z,994.63
2019-01-17T01:34:05.507Z,994.64
2019-01-17T01:35:05.494Z,994.65
2019-01-17T01:36:05.484Z,994.63
2019-01-17T01:37:05.472Z,994.64
2019-01-17T01:38:05.469Z,994.70
2019-01-17T01:39:05.451Z,994.70
2019-01-17T01:40:05.437Z,994.71
2019-01-17T01:41:05.427Z,994.74
2019-01-17T01:42:05.417Z,994.69
2019-01-17T01:43:05.405Z,994.72
2019-01-17T01:44:05.394Z,994.66
2019-01-17T01:45:05.388Z,994.67
2019-01-17T01:46:05.374Z,994.65
2019-01-17T01:47:05.361Z,994.66
2019-01-17T01:48:05.359Z,994.62
2019-01-17T01:49:05.348Z,994.62
2019-01-17T01:50:05.332Z,994.63
2019-01-17T01:51:05.318Z,994.61
2019-01-17T01:52:05.304Z,994.53
2019-01-17T01:53:05.295Z,994.60
2019-01-17T01:54:05.288Z,994.58
2019-01-17T01:55:05.278Z,994.59
2019-01-17T01:56:05.265Z,994.58
2019-01-17T01:57:05.252Z,994.56
2019-01-17T01:58:05.243Z,994.56
2019-01-17T01:59:05.229Z,994.56
2019-01-17T02:00:05.218Z,994.53
2019-01-17T02:01:05.206Z,994.54
2019-01-17T02:02:05.200Z,994.53
2019-01-17T02:03:05.182Z,994.54
2019-01-17T02:04:05.170Z,994.60
2019-01-17T02:05:05.166Z,994.60
2019-01-17T02:06:05.155Z,994.65
2019-01-17T02:07:05.139Z,994.67
2019-01-17T02:08:05.127Z,994.60
2019-01-17T02:09:05.116Z,994.64
2019-01-17T02:10:05.111Z,994.57
2019-01-17T02:11:05.093Z,994.49
2019-01-17T02:12:05.087Z,994.50
2019-01-17T02:13:05.078Z,994.43
2019-01-17T02:14:05.063Z,994.42
2019-01-17T02:15:05.049Z,994.42
2019-01-17T02:16:05.039Z,994.46
2019-01-17T02:17:05.027Z,994.39
2019-01-17T02:18:05.018Z,994.39
2019-01-17T02:19:05.012Z,994.35
2019-01-17T02:20:05.003Z,994.29
2019-01-17T02:21:04.983Z,994.30
2019-01-17T02:22:04.981Z,994.29
2019-01-17T02:23:04.960Z,994.18
2019-01-17T02:24:04.950Z,994.21
2019-01-17T02:25:04.940Z,994.30
2019-01-17T02:26:04.928Z,994.24
2019-01-17T02:27:04.923Z,994.27
2019-01-17T02:28:04.906Z,994.28
2019-01-17T02:29:04.899Z,994.25
2019-01-17T02:30:04.884Z,994.22
2019-01-17T02:31:04.871Z,994.21
2019-01-17T02:32:04.861Z,994.17
2019-01-17T02:33:04.849Z,994.14
2019-01-17T02:34:04.838Z,994.09
2019-01-17T02:35:04.831Z,994.10
2019-01-17T02:36:04.816Z,994.11
2019-01-17T02:37:04.805Z,994.15
2019-01-17T02:38:04.795Z,994.10
2019-01-17T02:39:04.791Z,994.14
2019-01-17T02:40:04.771Z,994.20
2019-01-17T02:41:04.770Z,994.18
2019-01-17T02:42:04.749Z,994.16
2019-01-17T02:43:04.742Z,994.11
2019-01-17T02:44:04.730Z,994.14
2019-01-17T02:45:04.716Z,994.04
2019-01-17T02:46:04.705Z,994.10
2019-01-17T02:47:04.699Z,994.07
2019-01-17T02:48:04.684Z,994.11
2019-01-17T02:49:04.670Z,994.13
2019-01-17T02:50:04.659Z,994.18
2019-01-17T02:51:04.647Z,994.08
2019-01-17T02:52:04.636Z,994.00
2019-01-17T02:53:04.626Z,993.96
2019-01-17T02:54:04.618Z,993.90
2019-01-17T02:55:04.604Z,994.04
2019-01-17T02:56:04.592Z,994.12
2019-01-17T02:57:04.591Z,994.13
2019-01-17T02:58:04.576Z,994.01
2019-01-17T02:59:04.562Z,993.98
2019-01-17T03:00:04.557Z,994.07
2019-01-17T03:01:04.537Z,994.06
2019-01-17T03:02:04.531Z,994.01
2019-01-17T03:03:04.517Z,994.01
2019-01-17T03:04:04.502Z,994.05
2019-01-17T03:05:04.495Z,994.13
2019-01-17T03:06:04.484Z,994.09
2019-01-17T03:07:04.469Z,994.01
2019-01-17T03:08:04.460Z,993.95
2019-01-17T03:09:04.454Z,994.00
2019-01-17T03:10:04.437Z,993.97
2019-01-17T03:11:04.427Z,993.84
2019-01-17T03:12:04.417Z,993.82
2019-01-17T03:13:04.406Z,993.77
2019-01-17T03:14:04.391Z,993.73
2019-01-17T03:15:04.400Z,993.80
2019-01-17T03:16:04.370Z,993.92
2019-01-17T03:17:04.366Z,993.92
2019-01-17T03:18:04.347Z,994.08
2019-01-17T03:19:04.336Z,993.97
2019-01-17T03:20:04.325Z,993.96
2019-01-17T03:21:04.316Z,993.93
2019-01-17T03:22:04.302Z,993.96
2019-01-17T03:23:04.291Z,993.87
2019-01-17T03:24:04.279Z,993.90
2019-01-17T03:25:04.270Z,993.93
2019-01-17T03:26:04.258Z,993.87
2019-01-17T03:27:04.252Z,993.86
2019-01-17T03:28:04.237Z,993.98
2019-01-17T03:29:04.224Z,994.04
2019-01-17T03:30:04.212Z,993.92
2019-01-17T03:31:04.204Z,993.96
2019-01-17T03:32:04.208Z,993.94
2019-01-17T03:33:04.188Z,993.90
2019-01-17T03:34:04.176Z,993.85
2019-01-17T03:35:04.158Z,993.82
2019-01-17T03:36:04.148Z,993.82
2019-01-17T03:37:04.143Z,993.87
2019-01-17T03:38:04.128Z,993.83
2019-01-17T03:39:04.116Z,993.91
2019-01-17T03:40:04.102Z,993.81
2019-01-17T03:41:04.092Z,993.84
2019-01-17T03:42:04.080Z,993.83
2019-01-17T03:43:04.067Z,993.86
2019-01-17T03:44:04.057Z,993.79
2019-01-17T03:45:04.045Z,993.75
2019-01-17T03:46:04.037Z,993.77
2019-01-17T03:47:04.026Z,993.74
2019-01-17T03:48:04.015Z,993.75
2019-01-17T03:49:04.004Z,993.82
2019-01-17T03:50:03.991Z,993.72
2019-01-17T03:51:03.982Z,993.81
2019-01-17T03:52:03.973Z,993.77
2019-01-17T03:53:03.961Z,993.86
2019-01-17T03:54:03.944Z,993.87
2019-01-17T03:55:03.934Z,993.79
2019-01-17T03:56:03.923Z,993.81
2019-01-17T03:57:03.909Z,993.85
2019-01-17T03:58:03.928Z,993.86
2019-01-17T03:59:03.890Z,993.73
2019-01-17T04:00:03.883Z,993.79
2019-01-17T04:01:03.882Z,993.78
2019-01-17T04:02:03.854Z,993.89
2019-01-17T04:03:03.845Z,993.80
2019-01-17T04:04:03.839Z,993.73
2019-01-17T04:05:03.824Z,993.77
2019-01-17T04:06:03.810Z,993.77
2019-01-17T04:07:03.808Z,993.76
2019-01-17T04:08:03.797Z,993.80
2019-01-17T04:09:03.781Z,993.75
2019-01-17T04:10:03.773Z,993.80
2019-01-17T04:11:03.759Z,993.82
2019-01-17T04:12:03.748Z,993.76
2019-01-17T04:13:03.730Z,993.81
2019-01-17T04:14:03.724Z,993.78
2019-01-17T04:15:03.716Z,993.84
2019-01-17T04:16:03.697Z,993.84
2019-01-17T04:17:03.688Z,993.77
2019-01-17T04:18:03.678Z,993.83
2019-01-17T04:19:03.669Z,993.87
2019-01-17T04:20:03.657Z,993.82
2019-01-17T04:21:03.642Z,993.82
2019-01-17T04:22:03.633Z,993.76
2019-01-17T04:23:03.624Z,993.75
2019-01-17T04:24:03.607Z,993.78
2019-01-17T04:25:03.602Z,993.78
2019-01-17T04:26:03.584Z,993.81
2019-01-17T04:27:03.575Z,993.85
2019-01-17T04:28:03.569Z,993.86
2019-01-17T04:29:03.556Z,993.85
2019-01-17T04:30:03.543Z,993.75
2019-01-17T04:31:03.528Z,993.85
2019-01-17T04:32:03.516Z,993.78
2019-01-17T04:33:03.516Z,993.76
2019-01-17T04:34:03.493Z,993.79
2019-01-17T04:35:03.482Z,993.71
2019-01-17T04:36:03.472Z,993.75
2019-01-17T04:37:03.467Z,993.84
2019-01-17T04:38:03.454Z,993.77
2019-01-17T04:39:03.438Z,993.88
2019-01-17T04:40:03.433Z,993.83
2019-01-17T04:41:03.418Z,993.76
2019-01-17T04:42:03.410Z,993.79
2019-01-17T04:43:03.409Z,993.74
2019-01-17T04:44:03.387Z,993.82
2019-01-17T04:45:03.380Z,993.81
2019-01-17T04:46:03.364Z,993.83
2019-01-17T04:47:03.350Z,993.90
2019-01-17T04:48:03.344Z,993.83
2019-01-17T04:49:03.329Z,993.89
2019-01-17T04:50:03.315Z,993.94
2019-01-17T04:51:03.303Z,993.85
2019-01-17T04:52:03.295Z,993.89
2019-01-17T04:53:03.283Z,993.83
2019-01-17T04:54:03.272Z,993.86
2019-01-17T04:55:05.493Z,993.81
2019-01-17T04:56:03.247Z,993.86
2019-01-17T04:57:03.240Z,993.82
2019-01-17T04:58:03.267Z,993.70
2019-01-17T04:59:03.217Z,993.77
2019-01-17T05:00:03.209Z,993.72
2019-01-17T05:01:03.199Z,993.64
2019-01-17T05:02:03.179Z,993.71
2019-01-17T05:03:03.169Z,993.71
2019-01-17T05:04:03.156Z,993.68
2019-01-17T05:05:03.149Z,993.72
2019-01-17T05:06:03.138Z,993.71
2019-01-17T05:07:03.123Z,993.71
2019-01-17T05:08:03.121Z,993.68
2019-01-17T05:09:03.101Z,993.73
2019-01-17T05:10:03.095Z,993.76
2019-01-17T05:11:03.080Z,993.74
2019-01-17T05:12:03.070Z,993.79
2019-01-17T05:13:03.059Z,993.76
2019-01-17T05:14:03.046Z,993.73
2019-01-17T05:15:03.036Z,993.76
2019-01-17T05:16:03.022Z,993.75
2019-01-17T05:17:03.016Z,993.75
2019-01-17T05:18:03.003Z,993.74
2019-01-17T05:19:02.988Z,993.73
2019-01-17T05:20:02.979Z,993.81
2019-01-17T05:21:02.966Z,993.80
2019-01-17T05:22:02.961Z,993.89
2019-01-17T05:23:02.948Z,993.81
2019-01-17T05:24:02.936Z,993.78
2019-01-17T05:25:02.920Z,993.85
2019-01-17T05:26:02.913Z,993.81
2019-01-17T05:27:02.899Z,993.88
2019-01-17T05:28:02.890Z,993.95
2019-01-17T05:29:02.877Z,993.93
2019-01-17T05:30:02.869Z,993.88
2019-01-17T05:31:02.861Z,993.90
2019-01-17T05:32:02.842Z,993.90
2019-01-17T05:33:02.838Z,994.08
2019-01-17T05:34:02.823Z,993.85
2019-01-17T05:35:02.813Z,993.89
2019-01-17T05:36:02.798Z,993.87
2019-01-17T05:37:02.785Z,993.87
2019-01-17T05:38:02.774Z,993.84
2019-01-17T05:39:02.770Z,993.78
2019-01-17T05:40:02.759Z,993.83
2019-01-17T05:41:02.741Z,993.77
2019-01-17T05:42:02.738Z,993.81
2019-01-17T05:43:02.724Z,993.88
2019-01-17T05:44:02.707Z,993.83
2019-01-17T05:45:02.696Z,993.84
2019-01-17T05:46:02.683Z,993.96
2019-01-17T05:47:02.674Z,993.89
2019-01-17T05:48:02.668Z,993.93
2019-01-17T05:49:02.650Z,993.91
2019-01-17T05:50:02.653Z,993.95
2019-01-17T05:51:02.630Z,993.97
2019-01-17T05:52:02.616Z,993.94
2019-01-17T05:53:02.607Z,993.85
2019-01-17T05:54:02.594Z,993.86
2019-01-17T05:55:02.589Z,993.85
2019-01-17T05:56:02.572Z,993.85
2019-01-17T05:57:02.562Z,993.88
2019-01-17T05:58:02.552Z,993.87
2019-01-17T05:59:02.545Z,993.96
2019-01-17T06:00:02.527Z,993.99
2019-01-17T06:01:02.526Z,993.91
2019-01-17T06:02:02.510Z,993.99
2019-01-17T06:03:02.500Z,994.06
2019-01-17T06:04:02.488Z,993.91
2019-01-17T06:05:02.471Z,993.95
2019-01-17T06:06:02.461Z,993.91
2019-01-17T06:07:02.448Z,993.94
2019-01-17T06:08:02.437Z,993.92
2019-01-17T06:09:02.434Z,993.88
2019-01-17T06:10:02.414Z,993.86
2019-01-17T06:11:02.402Z,993.95
2019-01-17T06:12:02.393Z,993.97
2019-01-17T06:13:02.380Z,994.00
2019-01-17T06:14:02.369Z,994.07
2019-01-17T06:15:02.359Z,994.02
2019-01-17T06:16:02.347Z,994.00
2019-01-17T06:17:02.342Z,994.06
2019-01-17T06:18:02.326Z,994.13
2019-01-17T06:19:02.314Z,994.14
2019-01-17T06:20:02.305Z,994.12
2019-01-17T06:21:02.290Z,994.13
2019-01-17T06:22:02.277Z,994.16
2019-01-17T06:23:02.269Z,994.11
2019-01-17T06:24:02.267Z,994.22
2019-01-17T06:25:02.253Z,994.13
2019-01-17T06:26:02.236Z,994.12
2019-01-17T06:27:02.229Z,994.13
2019-01-17T06:28:02.211Z,994.19
2019-01-17T06:29:02.200Z,994.20
2019-01-17T06:30:02.189Z,994.24
2019-01-17T06:31:02.180Z,994.21
2019-01-17T06:32:02.169Z,994.16
2019-01-17T06:33:02.162Z,994.19
2019-01-17T06:34:02.151Z,994.16
2019-01-17T06:35:02.132Z,994.15
2019-01-17T06:36:02.120Z,994.13
2019-01-17T06:37:02.124Z,994.13
2019-01-17T06:38:02.119Z,994.13
2019-01-17T06:39:02.130Z,994.19
2019-01-17T06:40:02.128Z,994.22
2019-01-17T06:41:02.067Z,994.28
2019-01-17T06:42:02.072Z,994.22
2019-01-17T06:43:02.073Z,994.36
2019-01-17T06:44:02.088Z,994.40
2019-01-17T06:45:02.019Z,994.37
2019-01-17T06:46:02.010Z,994.37
2019-01-17T06:47:01.997Z,994.32
2019-01-17T06:48:01.985Z,994.42
2019-01-17T06:49:01.975Z,994.50
2019-01-17T06:50:01.974Z,994.47
2019-01-17T06:51:01.955Z,994.43
2019-01-17T06:52:01.940Z,994.43
2019-01-17T06:53:01.929Z,994.38
2019-01-17T06:54:01.920Z,994.39
2019-01-17T06:55:01.908Z,994.26
2019-01-17T06:56:01.895Z,994.38
2019-01-17T06:57:01.888Z,994.34
2019-01-17T06:58:01.876Z,994.27
2019-01-17T06:59:01.863Z,994.34
2019-01-17T07:00:01.858Z,994.32
2019-01-17T07:01:01.843Z,994.18
2019-01-17T07:02:01.830Z,994.27
2019-01-17T07:03:01.818Z,994.29
2019-01-17T07:04:01.811Z,994.39
2019-01-17T07:05:01.797Z,994.31
2019-01-17T07:06:01.784Z,994.36
2019-01-17T07:07:01.772Z,994.35
2019-01-17T07:08:01.763Z,994.41
2019-01-17T07:09:01.750Z,994.37
2019-01-17T07:10:01.740Z,994.41
2019-01-17T07:11:01.728Z,994.44
2019-01-17T07:12:01.717Z,994.45
2019-01-17T07:13:01.706Z,994.51
2019-01-17T07:14:01.693Z,994.44
2019-01-17T07:15:01.686Z,994.60
2019-01-17T07:16:01.673Z,994.60
2019-01-17T07:17:01.663Z,994.56
2019-01-17T07:18:01.649Z,994.59
2019-01-17T07:19:01.640Z,994.54
2019-01-17T07:20:01.626Z,994.49
2019-01-17T07:21:01.615Z,994.59
2019-01-17T07:22:01.605Z,994.57
2019-01-17T07:23:01.598Z,994.65
2019-01-17T07:24:01.578Z,994.74
2019-01-17T07:25:01.568Z,994.69
2019-01-17T07:26:01.559Z,994.66
2019-01-17T07:27:01.554Z,994.68
2019-01-17T07:28:01.534Z,994.70
2019-01-17T07:29:01.523Z,994.73
2019-01-17T07:30:01.521Z,994.80
2019-01-17T07:31:01.506Z,994.88
2019-01-17T07:32:01.490Z,994.83
2019-01-17T07:33:01.483Z,994.89
2019-01-17T07:34:01.473Z,994.95
2019-01-17T07:35:01.462Z,994.98
2019-01-17T07:36:01.452Z,995.04
2019-01-17T07:37:01.433Z,994.97
2019-01-17T07:38:01.422Z,994.98
2019-01-17T07:39:01.413Z,994.85
2019-01-17T07:40:01.401Z,994.88
2019-01-17T07:41:01.397Z,994.86
2019-01-17T07:42:01.385Z,994.84
2019-01-17T07:43:01.370Z,994.86
2019-01-17T07:44:01.355Z,994.86
2019-01-17T07:45:01.343Z,994.84
2019-01-17T07:46:01.338Z,994.85
2019-01-17T07:47:01.324Z,994.85
2019-01-17T07:48:01.308Z,994.90
2019-01-17T07:49:01.307Z,994.79
2019-01-17T07:50:01.298Z,994.87
2019-01-17T07:51:01.282Z,994.82
2019-01-17T07:52:01.268Z,994.87
2019-01-17T07:53:01.252Z,994.88
2019-01-17T07:54:01.247Z,994.91
2019-01-17T07:55:01.241Z,994.93
2019-01-17T07:56:01.224Z,994.91
2019-01-17T07:57:01.208Z,995.00
2019-01-17T07:58:01.197Z,995.11
2019-01-17T07:59:01.186Z,994.99
2019-01-17T08:00:01.213Z,994.95
2019-01-17T08:01:01.165Z,994.98
2019-01-17T08:02:01.158Z,995.07
2019-01-17T08:03:01.142Z,995.07
2019-01-17T08:04:01.128Z,995.20
2019-01-17T08:05:01.117Z,995.06
2019-01-17T08:06:01.114Z,995.13
2019-01-17T08:07:01.095Z,995.14
2019-01-17T08:08:01.099Z,995.13
2019-01-17T08:09:01.073Z,995.12
2019-01-17T08:10:01.066Z,995.12
2019-01-17T08:11:01.050Z,995.21
2019-01-17T08:12:05.021Z,995.16
2019-01-17T08:13:01.038Z,995.12
2019-01-17T08:14:01.016Z,995.12
2019-01-17T08:15:01.005Z,995.22
2019-01-17T08:16:00.994Z,995.23
2019-01-17T08:17:00.984Z,995.26
2019-01-17T08:18:00.973Z,995.30
2019-01-17T08:19:00.966Z,995.26
2019-01-17T08:20:00.952Z,995.21
2019-01-17T08:21:00.938Z,995.36
2019-01-17T08:22:00.932Z,995.32
2019-01-17T08:23:00.916Z,995.35
2019-01-17T08:24:00.912Z,995.31
2019-01-17T08:25:00.900Z,995.31
2019-01-17T08:26:00.888Z,995.34
2019-01-17T08:27:00.874Z,995.29
2019-01-17T08:28:00.862Z,995.37
2019-01-17T08:29:00.848Z,995.31
2019-01-17T08:30:00.845Z,995.35
2019-01-17T08:31:00.826Z,995.36
2019-01-17T08:32:00.816Z,995.42
2019-01-17T08:33:00.804Z,995.39
2019-01-17T08:34:00.798Z,995.31
2019-01-17T08:35:00.783Z,995.37
2019-01-17T08:36:00.777Z,995.36
2019-01-17T08:37:00.765Z,995.33
2019-01-17T08:38:00.748Z,995.32
2019-01-17T08:39:00.737Z,995.30
2019-01-17T08:40:00.727Z,995.41
2019-01-17T08:41:02.717Z,995.41
2019-01-17T08:42:00.710Z,995.37
2019-01-17T08:43:00.692Z,995.41
2019-01-17T08:44:00.685Z,995.43
2019-01-17T08:45:00.674Z,995.33
2019-01-17T08:46:00.664Z,995.40
2019-01-17T08:47:00.648Z,995.46
2019-01-17T08:48:00.642Z,995.46
2019-01-17T08:49:00.627Z,995.48
2019-01-17T08:50:00.616Z,995.45
2019-01-17T08:51:00.604Z,995.46
2019-01-17T08:52:00.593Z,995.46
2019-01-17T08:53:00.587Z,995.44
2019-01-17T08:54:00.578Z,995.51
2019-01-17T08:55:00.621Z,995.51
2019-01-17T08:56:00.998Z,995.59
2019-01-17T08:57:00.537Z,995.66
2019-01-17T08:58:00.527Z,995.61
2019-01-17T08:59:00.518Z,995.68
2019-01-17T09:00:00.506Z,995.72
2019-01-17T09:01:00.494Z,995.70
2019-01-17T09:02:00.488Z,995.65
2019-01-17T09:03:00.479Z,995.70
2019-01-17T09:04:00.460Z,995.71
2019-01-17T09:05:00.452Z,995.67
2019-01-17T09:06:00.442Z,995.72
2019-01-17T09:07:00.429Z,995.77
2019-01-17T09:08:00.422Z,995.72
2019-01-17T09:09:00.705Z,995.70
2019-01-17T09:10:00.396Z,995.76
2019-01-17T09:11:00.391Z,995.74
2019-01-17T09:12:00.374Z,995.77
2019-01-17T09:13:00.364Z,995.79
2019-01-17T09:14:00.352Z,995.78
2019-01-17T09:15:00.344Z,995.77
2019-01-17T09:16:00.330Z,995.72
2019-01-17T09:17:00.323Z,995.75
2019-01-17T09:18:00.309Z,995.76
2019-01-17T09:19:00.305Z,995.76
2019-01-17T09:20:00.288Z,995.81
2019-01-17T09:21:00.281Z,995.90
2019-01-17T09:22:00.264Z,995.81
2019-01-17T09:23:00.254Z,995.81
2019-01-17T09:24:00.243Z,995.80
2019-01-17T09:25:00.238Z,995.85
2019-01-17T09:26:00.239Z,995.84
2019-01-17T09:27:00.210Z,995.92
2019-01-17T09:28:00.202Z,995.87
2019-01-17T09:29:00.189Z,995.91
2019-01-17T09:30:00.179Z,995.89
2019-01-17T09:31:00.174Z,995.89
2019-01-17T09:32:00.158Z,995.86
2019-01-17T09:33:00.148Z,995.89
2019-01-17T09:34:00.139Z,995.89
2019-01-17T09:35:00.225Z,995.87
2019-01-17T09:36:00.129Z,995.94
2019-01-17T09:37:00.102Z,995.95
2019-01-17T09:38:00.088Z,995.89
2019-01-17T09:39:00.077Z,995.92
2019-01-17T09:40:00.204Z,995.95
2019-01-17T09:41:00.056Z,995.89
2019-01-17T09:42:00.047Z,995.95
2019-01-17T09:43:00.034Z,995.99
2019-01-17T09:44:00.076Z,995.92
2019-01-17T09:45:00.035Z,995.95
2019-01-17T09:46:00.004Z,995.91
2019-01-17T09:46:59.991Z,995.87
2019-01-17T09:47:59.983Z,995.84
2019-01-17T09:48:59.969Z,995.79
2019-01-17T09:49:59.962Z,995.80
2019-01-17T09:50:59.948Z,995.86
2019-01-17T09:51:59.936Z,995.86
2019-01-17T09:52:59.927Z,995.93
2019-01-17T09:53:59.922Z,995.93
2019-01-17T09:54:59.906Z,996.04
2019-01-17T09:55:59.893Z,995.90
2019-01-17T09:56:59.883Z,996.00
2019-01-17T09:57:59.876Z,996.01
2019-01-17T09:58:59.861Z,995.96
2019-01-17T09:59:59.852Z,996.01
2019-01-17T10:00:59.843Z,995.92
2019-01-17T10:01:59.828Z,996.00
2019-01-17T10:02:59.818Z,995.97
2019-01-17T10:03:59.808Z,995.97
2019-01-17T10:04:59.804Z,996.01
2019-01-17T10:05:59.787Z,996.05
2019-01-17T10:06:59.776Z,995.85
2019-01-17T10:07:59.767Z,995.94
2019-01-17T10:08:59.751Z,995.97
2019-01-17T10:09:59.744Z,995.98
2019-01-17T10:10:59.738Z,995.99
2019-01-17T10:11:59.720Z,995.92
2019-01-17T10:12:59.713Z,996.00
2019-01-17T10:13:59.730Z,996.08
2019-01-17T10:14:59.687Z,996.01
2019-01-17T10:15:59.677Z,996.07
2019-01-17T10:16:59.669Z,996.05
2019-01-17T10:17:59.654Z,996.08
2019-01-17T10:18:59.650Z,996.06
2019-01-17T10:19:59.633Z,996.05
2019-01-17T10:20:59.627Z,995.98
2019-01-17T10:21:59.626Z,995.98
2019-01-17T10:22:59.601Z,996.03
2019-01-17T10:23:59.597Z,995.98
2019-01-17T10:24:59.581Z,996.09
2019-01-17T10:25:59.573Z,995.89
2019-01-17T10:26:59.565Z,995.92
2019-01-17T10:27:59.549Z,995.99
2019-01-17T10:29:00.051Z,995.95
2019-01-17T10:29:59.537Z,996.01
2019-01-17T10:30:59.519Z,996.01
2019-01-17T10:31:59.627Z,995.97
2019-01-17T10:32:59.493Z,995.96
2019-01-17T10:33:59.483Z,996.02
2019-01-17T10:34:59.471Z,995.95
2019-01-17T10:35:59.465Z,996.00
2019-01-17T10:36:59.449Z,996.02
2019-01-17T10:37:59.444Z,996.02
2019-01-17T10:38:59.438Z,996.06
2019-01-17T10:39:59.418Z,996.03
2019-01-17T10:40:59.407Z,996.03
2019-01-17T10:41:59.395Z,995.98
2019-01-17T10:42:59.390Z,996.05
2019-01-17T10:43:59.374Z,995.93
2019-01-17T10:44:59.363Z,995.90
2019-01-17T10:45:59.357Z,995.87
2019-01-17T10:46:59.348Z,995.82
2019-01-17T10:48:00.302Z,995.80
2019-01-17T10:48:59.324Z,995.83
2019-01-17T10:49:59.308Z,995.81
2019-01-17T10:50:59.303Z,995.76
2019-01-17T10:51:59.287Z,995.74
2019-01-17T10:52:59.276Z,995.72
2019-01-17T10:53:59.270Z,995.76
2019-01-17T10:54:59.259Z,995.74
2019-01-17T10:55:59.243Z,995.73
2019-01-17T10:56:59.231Z,995.73
2019-01-17T10:57:59.226Z,995.74
2019-01-17T10:58:59.207Z,995.74
2019-01-17T10:59:59.198Z,995.67
2019-01-17T11:00:59.189Z,995.71
2019-01-17T11:01:59.175Z,995.73
2019-01-17T11:02:59.163Z,995.71
2019-01-17T11:03:59.152Z,995.79
2019-01-17T11:04:59.144Z,995.67
2019-01-17T11:05:59.130Z,995.67
2019-01-17T11:06:59.118Z,995.61
2019-01-17T11:07:59.106Z,995.61
2019-01-17T11:08:59.101Z,995.60
2019-01-17T11:09:59.083Z,995.64
2019-01-17T11:10:59.078Z,995.56
2019-01-17T11:11:59.060Z,995.57
2019-01-17T11:12:59.048Z,995.58
2019-01-17T11:13:59.038Z,995.53
2019-01-17T11:14:59.027Z,995.56
2019-01-17T11:15:59.017Z,995.54
2019-01-17T11:16:59.025Z,995.54
2019-01-17T11:17:58.994Z,995.52
2019-01-17T11:18:59.010Z,995.61
2019-01-17T11:19:58.992Z,995.50
2019-01-17T11:20:58.963Z,995.49
2019-01-17T11:21:58.952Z,995.54
2019-01-17T11:22:58.937Z,995.49
2019-01-17T11:23:58.928Z,995.48
2019-01-17T11:24:58.915Z,995.44
2019-01-17T11:25:58.901Z,995.39
2019-01-17T11:26:58.894Z,995.42
2019-01-17T11:27:58.878Z,995.43
2019-01-17T11:28:58.868Z,995.47
2019-01-17T11:29:58.857Z,995.46
2019-01-17T11:30:58.850Z,995.44
2019-01-17T11:31:58.830Z,995.31
2019-01-17T11:32:58.821Z,995.38
2019-01-17T11:33:58.808Z,995.37
2019-01-17T11:34:58.796Z,995.42
2019-01-17T11:35:58.785Z,995.44
2019-01-17T11:36:58.776Z,995.50
2019-01-17T11:37:58.769Z,995.46
2019-01-17T11:38:58.750Z,995.41
2019-01-17T11:39:58.742Z,995.37
2019-01-17T11:40:58.731Z,995.42
2019-01-17T11:41:58.714Z,995.37
2019-01-17T11:42:58.704Z,995.32
2019-01-17T11:43:58.698Z,995.32
2019-01-17T11:44:58.685Z,995.34
2019-01-17T11:45:58.669Z,995.34
2019-01-17T11:46:58.660Z,995.25
2019-01-17T11:47:58.654Z,995.29
2019-01-17T11:48:58.635Z,995.30
2019-01-17T11:49:58.621Z,995.33
2019-01-17T11:50:58.612Z,995.29
2019-01-17T11:51:58.602Z,995.35
2019-01-17T11:52:58.588Z,995.22
2019-01-17T11:53:58.582Z,995.25
2019-01-17T11:54:58.565Z,995.27
2019-01-17T11:55:58.552Z,995.29
2019-01-17T11:56:58.543Z,995.26
2019-01-17T11:57:58.531Z,995.23
2019-01-17T11:59:00.219Z,995.12
2019-01-17T11:59:58.514Z,995.13
2019-01-17T12:00:58.503Z,995.13
2019-01-17T12:01:58.485Z,995.14
2019-01-17T12:02:58.473Z,995.18
2019-01-17T12:03:58.461Z,995.14
2019-01-17T12:04:58.453Z,995.17
2019-01-17T12:05:58.455Z,995.25
2019-01-17T12:06:58.431Z,995.16
2019-01-17T12:07:58.426Z,995.12
2019-01-17T12:08:58.404Z,995.22
2019-01-17T12:09:58.441Z,995.20
2019-01-17T12:10:58.391Z,995.19
2019-01-17T12:11:58.398Z,995.26
2019-01-17T12:12:58.359Z,995.21
2019-01-17T12:13:58.372Z,995.26
2019-01-17T12:14:58.339Z,995.19
2019-01-17T12:15:58.372Z,995.11
2019-01-17T12:16:58.313Z,995.07
2019-01-17T12:17:58.349Z,995.12
2019-01-17T12:18:58.289Z,995.14
2019-01-17T12:19:58.280Z,995.11
2019-01-17T12:20:58.285Z,995.10
2019-01-17T12:21:58.311Z,995.13
2019-01-17T12:22:58.286Z,995.16
2019-01-17T12:23:58.300Z,995.10
2019-01-17T12:24:58.230Z,995.14
2019-01-17T12:25:58.325Z,995.11
2019-01-17T12:26:58.230Z,995.12
2019-01-17T12:27:58.247Z,995.10